Time;durP1;ratioP1;P1;durP2;ratioP2;P2;SDS_P1;SDS_P2;PMS_P1;PMS_P2;Temp;Humidity;BMP_temperature;BMP_pressure;BME280_temperature;BME280_humidity;BME280_pressure;Samples;Min_cycle;Max_cycle;Signal;HPM_P1;HPM_P2
2021/07/25 00:00:53;;;;;;;41.88;28.50;;;;;;;;;;5050029;28;20143;-64
2021/07/25 00:03:19;;;;;;;47.58;29.67;;;;;;;;;;5049923;28;20036;-64
2021/07/25 00:05:45;;;;;;;41.67;28.23;;;;;;;;;;5047067;28;20025;-64
2021/07/25 00:08:12;;;;;;;37.65;27.25;;;;;;;;;;5049588;28;20096;-64
2021/07/25 00:10:40;;;;;;;37.28;26.27;;;;;;;;;;5046563;28;20612;-64
2021/07/25 00:13:06;;;;;;;36.35;25.65;;;;;;;;;;5050440;28;20045;-64
2021/07/25 00:15:32;;;;;;;35.70;26.25;;;;;;;;;;5047648;28;20032;-64
2021/07/25 00:17:58;;;;;;;36.47;24.90;;;;;;;;;;5046712;28;20040;-64
2021/07/25 00:20:24;;;;;;;37.72;24.33;;;;;;;;;;5049531;28;20025;-64
2021/07/25 00:22:50;;;;;;;40.53;25.38;;;;;;;;;;5049217;28;20032;-64
2021/07/25 00:25:19;;;;;;;36.17;24.88;;;;;;;;;;5048603;28;20033;-64
2021/07/25 00:27:46;;;;;;;32.85;24.90;;;;;;;;;;5048547;28;20021;-64
2021/07/25 00:30:12;;;;;;;34.42;24.35;;;;;;;;;;5050419;28;20022;-64
2021/07/25 00:32:39;;;;;;;38.20;26.45;;;;;;;;;;5048170;28;20044;-64
2021/07/25 00:35:06;;;;;;;38.25;25.30;;;;;;;;;;5049325;28;20071;-64
2021/07/25 00:37:32;;;;;;;35.80;25.70;;;;;;;;;;5046350;28;20112;-64
2021/07/25 00:39:58;;;;;;;36.63;25.73;;;;;;;;;;5047745;28;20029;-64
2021/07/25 00:42:24;;;;;;;29.98;22.05;;;;;;;;;;5046308;28;20032;-64
2021/07/25 00:44:50;;;;;;;37.22;26.00;;;;;;;;;;5046690;28;20039;-63
2021/07/25 00:47:16;;;;;;;44.97;29.48;;;;;;;;;;5046639;28;20412;-64
2021/07/25 00:49:42;;;;;;;44.92;29.45;;;;;;;;;;5053088;28;20033;-64
2021/07/25 00:52:08;;;;;;;40.97;26.63;;;;;;;;;;5054893;28;20036;-64
2021/07/25 00:54:38;;;;;;;34.40;24.40;;;;;;;;;;5053426;28;20496;-64
2021/07/25 00:57:04;;;;;;;40.95;25.90;;;;;;;;;;5050861;28;20113;-64
2021/07/25 00:59:30;;;;;;;39.22;25.33;;;;;;;;;;5053618;28;20029;-64
2021/07/25 01:01:56;;;;;;;34.10;24.60;;;;;;;;;;5051385;28;20052;-64
2021/07/25 01:04:22;;;;;;;40.45;26.23;;;;;;;;;;5050118;28;20037;-65
2021/07/25 01:06:55;;;;;;;36.75;25.90;;;;;;;;;;5046357;28;20029;-64
2021/07/25 01:09:21;;;;;;;43.58;25.63;;;;;;;;;;5052129;28;20094;-64
2021/07/25 01:11:48;;;;;;;39.83;25.10;;;;;;;;;;5051268;28;20476;-64
2021/07/25 01:14:37;;;;;;;44.85;27.67;;;;;;;;;;5052908;28;20488;-64
2021/07/25 01:17:22;;;;;;;37.88;24.50;;;;;;;;;;5045576;28;20129;-64
2021/07/25 01:19:49;;;;;;;43.53;25.65;;;;;;;;;;5049498;28;20029;-64
2021/07/25 01:22:15;;;;;;;42.60;26.35;;;;;;;;;;5050759;28;20098;-64
2021/07/25 01:24:41;;;;;;;34.50;22.85;;;;;;;;;;5050430;28;20098;-64
2021/07/25 01:27:07;;;;;;;34.55;23.77;;;;;;;;;;5048405;28;20029;-64
2021/07/25 01:29:34;;;;;;;41.55;22.42;;;;;;;;;;5048050;28;20017;-64
2021/07/25 01:32:01;;;;;;;39.75;23.83;;;;;;;;;;5043672;28;20311;-64
2021/07/25 01:34:27;;;;;;;40.33;23.55;;;;;;;;;;5052347;28;20511;-64
2021/07/25 01:36:53;;;;;;;41.40;23.58;;;;;;;;;;5050492;28;20029;-64
2021/07/25 01:39:19;;;;;;;37.60;23.23;;;;;;;;;;5051129;28;20505;-64
2021/07/25 01:41:46;;;;;;;38.63;23.13;;;;;;;;;;5050416;28;20029;-64
2021/07/25 01:44:12;;;;;;;38.90;23.70;;;;;;;;;;5051066;28;20108;-64
2021/07/25 01:46:39;;;;;;;35.65;22.83;;;;;;;;;;5048809;28;20033;-64
2021/07/25 01:49:05;;;;;;;43.03;22.80;;;;;;;;;;5050412;28;20024;-64
2021/07/25 01:51:31;;;;;;;45.42;25.02;;;;;;;;;;5049906;28;20471;-64
2021/07/25 01:53:57;;;;;;;38.95;22.63;;;;;;;;;;5050173;28;20124;-64
2021/07/25 01:56:23;;;;;;;38.63;24.10;;;;;;;;;;5048638;28;20086;-64
2021/07/25 01:58:49;;;;;;;40.75;23.52;;;;;;;;;;5051306;28;20029;-64
2021/07/25 02:01:15;;;;;;;39.70;24.95;;;;;;;;;;5053278;28;20025;-64
2021/07/25 02:03:41;;;;;;;44.45;25.65;;;;;;;;;;5048977;28;20028;-64
2021/07/25 02:06:08;;;;;;;44.33;27.13;;;;;;;;;;5046248;28;20028;-64
2021/07/25 02:08:34;;;;;;;36.53;24.40;;;;;;;;;;5051030;28;20520;-64
2021/07/25 02:11:00;;;;;;;53.40;28.05;;;;;;;;;;5052004;28;20021;-64
2021/07/25 02:13:26;;;;;;;46.88;26.42;;;;;;;;;;5052161;28;20029;-64
2021/07/25 02:15:52;;;;;;;45.08;26.48;;;;;;;;;;5049314;28;20017;-64
2021/07/25 02:18:18;;;;;;;44.80;25.52;;;;;;;;;;5050356;28;20104;-64
2021/07/25 02:20:44;;;;;;;50.83;28.02;;;;;;;;;;5049204;28;20033;-64
2021/07/25 02:23:11;;;;;;;47.47;28.25;;;;;;;;;;5051214;28;20021;-64
2021/07/25 02:25:38;;;;;;;45.17;25.45;;;;;;;;;;5046357;28;20033;-64
2021/07/25 02:28:05;;;;;;;40.97;25.55;;;;;;;;;;5050836;28;20025;-64
2021/07/25 02:30:31;;;;;;;46.95;25.88;;;;;;;;;;5052262;28;20025;-64
2021/07/25 02:32:57;;;;;;;48.22;29.13;;;;;;;;;;5050838;28;20500;-64
2021/07/25 02:35:23;;;;;;;40.67;25.63;;;;;;;;;;5047033;28;20504;-64
2021/07/25 02:37:49;;;;;;;47.45;27.75;;;;;;;;;;5048771;28;20036;-64
2021/07/25 02:40:15;;;;;;;54.83;26.95;;;;;;;;;;5049031;28;20036;-64
2021/07/25 02:42:42;;;;;;;51.80;26.70;;;;;;;;;;5049814;28;20028;-65
2021/07/25 02:45:09;;;;;;;40.67;27.33;;;;;;;;;;5050842;28;20033;-64
2021/07/25 02:47:35;;;;;;;43.83;28.83;;;;;;;;;;5046584;28;20027;-64
2021/07/25 02:50:01;;;;;;;50.47;28.98;;;;;;;;;;5048351;28;20016;-64
2021/07/25 02:52:27;;;;;;;48.72;28.10;;;;;;;;;;5047477;28;20689;-64
2021/07/25 02:54:53;;;;;;;45.83;29.15;;;;;;;;;;5048823;28;20021;-64
2021/07/25 02:57:19;;;;;;;42.90;28.25;;;;;;;;;;5047880;28;20032;-64
2021/07/25 02:59:45;;;;;;;47.30;28.42;;;;;;;;;;5051566;28;20028;-64
2021/07/25 03:02:11;;;;;;;47.97;29.50;;;;;;;;;;5046860;28;20404;-64
2021/07/25 03:04:37;;;;;;;49.55;29.08;;;;;;;;;;5051092;28;20139;-64
2021/07/25 03:07:03;;;;;;;50.00;29.48;;;;;;;;;;5045627;28;20025;-64
2021/07/25 03:09:30;;;;;;;44.58;27.25;;;;;;;;;;5047667;28;20139;-64
2021/07/25 03:11:56;;;;;;;46.85;29.73;;;;;;;;;;5050021;28;20404;-64
2021/07/25 03:14:22;;;;;;;43.88;27.33;;;;;;;;;;5050359;28;20028;-64
2021/07/25 03:16:48;;;;;;;45.72;27.08;;;;;;;;;;5048130;28;20028;-64
2021/07/25 03:19:14;;;;;;;45.85;28.35;;;;;;;;;;5051303;28;20040;-64
2021/07/25 03:21:40;;;;;;;51.58;29.98;;;;;;;;;;5051634;28;20029;-64
2021/07/25 03:24:06;;;;;;;52.08;30.05;;;;;;;;;;5048587;28;20083;-64
2021/07/25 03:26:32;;;;;;;51.30;30.38;;;;;;;;;;5045741;28;20037;-64
2021/07/25 03:28:58;;;;;;;52.80;30.40;;;;;;;;;;5047046;28;20052;-64
2021/07/25 03:31:24;;;;;;;60.47;32.63;;;;;;;;;;5049550;28;20036;-64
2021/07/25 03:33:50;;;;;;;54.30;31.98;;;;;;;;;;5047111;28;20052;-64
2021/07/25 03:36:16;;;;;;;56.78;35.20;;;;;;;;;;5049021;28;20036;-64
2021/07/25 03:38:42;;;;;;;52.28;33.17;;;;;;;;;;5047807;28;20021;-64
2021/07/25 03:41:08;;;;;;;62.53;32.97;;;;;;;;;;5040715;28;20614;-64
2021/07/25 03:43:34;;;;;;;59.92;34.42;;;;;;;;;;5051091;28;20032;-64
2021/07/25 03:46:00;;;;;;;54.42;31.77;;;;;;;;;;5046361;28;20021;-64
2021/07/25 03:48:27;;;;;;;57.83;33.05;;;;;;;;;;5048968;28;20025;-64
2021/07/25 03:50:53;;;;;;;55.85;33.72;;;;;;;;;;5050227;28;20024;-64
2021/07/25 03:53:19;;;;;;;52.63;33.60;;;;;;;;;;5045511;28;20021;-64
2021/07/25 03:55:45;;;;;;;61.67;37.22;;;;;;;;;;5048293;28;20496;-64
2021/07/25 03:58:12;;;;;;;57.03;33.75;;;;;;;;;;5050861;28;20552;-64
2021/07/25 04:00:38;;;;;;;49.78;31.88;;;;;;;;;;5047876;28;20033;-64
2021/07/25 04:03:04;;;;;;;50.85;31.05;;;;;;;;;;5048861;28;20029;-64
2021/07/25 04:05:30;;;;;;;56.58;33.80;;;;;;;;;;5046537;28;20021;-64
2021/07/25 04:07:56;;;;;;;59.10;34.47;;;;;;;;;;5048986;28;20021;-64
2021/07/25 04:10:22;;;;;;;60.58;35.78;;;;;;;;;;5048605;28;20025;-64
2021/07/25 04:12:49;;;;;;;54.42;35.05;;;;;;;;;;5054104;28;20505;-64
2021/07/25 04:15:16;;;;;;;52.50;34.08;;;;;;;;;;5046586;28;20029;-64
2021/07/25 04:17:42;;;;;;;62.80;33.17;;;;;;;;;;5047244;28;20070;-64
2021/07/25 04:20:08;;;;;;;52.97;34.30;;;;;;;;;;5047219;28;20037;-64
2021/07/25 04:22:38;;;;;;;50.80;32.00;;;;;;;;;;5048169;28;20112;-64
2021/07/25 04:25:05;;;;;;;58.22;34.28;;;;;;;;;;5048165;28;20025;-64
2021/07/25 04:27:31;;;;;;;56.80;34.72;;;;;;;;;;5052698;28;20021;-64
2021/07/25 04:29:58;;;;;;;57.25;33.10;;;;;;;;;;5050693;28;20031;-64
2021/07/25 04:32:24;;;;;;;69.80;34.42;;;;;;;;;;5051174;28;20025;-64
2021/07/25 04:34:51;;;;;;;53.53;34.15;;;;;;;;;;5051300;28;20045;-64
2021/07/25 04:37:52;;;;;;;55.15;32.58;;;;;;;;;;5050045;28;20033;-64
2021/07/25 04:40:09;;;;;;;;;;;;;;;;;;5050191;28;20041;-64
2021/07/25 04:42:36;;;;;;;62.53;34.10;;;;;;;;;;5054620;28;19908;-64
2021/07/25 04:45:08;;;;;;;60.03;36.33;;;;;;;;;;5051832;28;20024;-64
2021/07/25 04:47:36;;;;;;;54.30;33.35;;;;;;;;;;5049938;28;20036;-64
2021/07/25 04:50:02;;;;;;;57.78;35.45;;;;;;;;;;5054850;28;20029;-63
2021/07/25 04:52:30;;;;;;;57.42;34.60;;;;;;;;;;5050301;28;20074;-64
2021/07/25 04:54:57;;;;;;;62.47;37.13;;;;;;;;;;5048338;28;20048;-64
2021/07/25 04:57:25;;;;;;;62.92;36.10;;;;;;;;;;5050155;28;20029;-64
2021/07/25 04:59:54;;;;;;;62.97;39.40;;;;;;;;;;5051992;28;20052;-64
2021/07/25 05:02:23;;;;;;;60.00;38.83;;;;;;;;;;5052259;28;20041;-64
2021/07/25 05:04:49;;;;;;;63.67;37.83;;;;;;;;;;5053598;28;20562;-64
2021/07/25 05:07:16;;;;;;;64.75;36.80;;;;;;;;;;5052105;28;20020;-64
2021/07/25 05:09:42;;;;;;;55.88;35.08;;;;;;;;;;5053092;28;20036;-63
2021/07/25 05:12:30;;;;;;;68.05;36.90;;;;;;;;;;5053257;28;20112;-63
2021/07/25 05:15:06;;;;;;;63.25;38.28;;;;;;;;;;5050082;28;20071;-64
2021/07/25 05:17:51;;;;;;;64.68;39.53;;;;;;;;;;5049191;28;20029;-64
2021/07/25 05:20:17;;;;;;;69.63;39.17;;;;;;;;;;5052014;28;20087;-63
2021/07/25 05:22:56;;;;;;;62.97;36.47;;;;;;;;;;5054337;28;20029;-64
2021/07/25 05:25:23;;;;;;;61.63;37.22;;;;;;;;;;5052301;28;20029;-63
2021/07/25 05:27:50;;;;;;;58.38;35.22;;;;;;;;;;5047292;28;20526;-63
2021/07/25 05:30:18;;;;;;;63.00;38.75;;;;;;;;;;5049695;28;20026;-63
2021/07/25 05:32:44;;;;;;;70.50;38.53;;;;;;;;;;5049022;28;20051;-63
2021/07/25 05:35:11;;;;;;;70.80;40.40;;;;;;;;;;5046628;28;20049;-63
2021/07/25 05:37:38;;;;;;;69.65;38.83;;;;;;;;;;5051358;28;20519;-63
2021/07/25 05:40:04;;;;;;;84.25;45.38;;;;;;;;;;5052275;28;20082;-63
2021/07/25 05:42:30;;;;;;;73.20;41.05;;;;;;;;;;5053857;28;20043;-63
2021/07/25 05:44:56;;;;;;;80.03;43.53;;;;;;;;;;5049838;28;20017;-63
2021/07/25 05:47:22;;;;;;;82.47;46.15;;;;;;;;;;5052385;28;20071;-63
2021/07/25 05:49:48;;;;;;;77.22;47.63;;;;;;;;;;5049387;28;20025;-63
2021/07/25 05:52:14;;;;;;;88.53;49.17;;;;;;;;;;5052216;28;20021;-63
2021/07/25 05:54:41;;;;;;;90.65;51.88;;;;;;;;;;5052299;28;20107;-63
2021/07/25 05:57:08;;;;;;;102.10;55.38;;;;;;;;;;5050351;28;20037;-63
2021/07/25 05:59:34;;;;;;;99.10;55.10;;;;;;;;;;5049726;28;20086;-63
2021/07/25 06:02:03;;;;;;;102.85;56.30;;;;;;;;;;5051097;28;20029;-63
2021/07/25 06:04:30;;;;;;;97.25;57.33;;;;;;;;;;5050023;28;20021;-63
2021/07/25 06:06:56;;;;;;;99.57;53.40;;;;;;;;;;5047656;28;20025;-63
2021/07/25 06:09:23;;;;;;;94.28;52.95;;;;;;;;;;5054984;28;20029;-63
2021/07/25 06:11:49;;;;;;;82.65;47.92;;;;;;;;;;5051771;28;20035;-63
2021/07/25 06:14:15;;;;;;;80.38;43.80;;;;;;;;;;5049944;28;20082;-63
2021/07/25 06:16:41;;;;;;;66.60;42.25;;;;;;;;;;5048025;28;20512;-63
2021/07/25 06:19:07;;;;;;;62.83;39.05;;;;;;;;;;5047417;28;20493;-63
2021/07/25 06:21:33;;;;;;;68.10;39.35;;;;;;;;;;5048958;28;20459;-63
2021/07/25 06:23:59;;;;;;;67.28;38.40;;;;;;;;;;5048499;28;20119;-64
2021/07/25 06:26:26;;;;;;;57.65;36.58;;;;;;;;;;5049583;28;20017;-63
2021/07/25 06:28:52;;;;;;;58.55;35.75;;;;;;;;;;5051051;28;20489;-63
2021/07/25 06:31:18;;;;;;;62.97;38.45;;;;;;;;;;5049527;28;20025;-63
2021/07/25 06:33:45;;;;;;;62.55;36.90;;;;;;;;;;5053099;28;20031;-64
2021/07/25 06:36:14;;;;;;;62.78;35.35;;;;;;;;;;5052117;28;20025;-63
2021/07/25 06:38:40;;;;;;;62.83;36.38;;;;;;;;;;5050162;28;20032;-63
2021/07/25 06:41:06;;;;;;;65.35;35.97;;;;;;;;;;5045065;28;20033;-63
2021/07/25 06:43:33;;;;;;;62.03;36.58;;;;;;;;;;5051355;28;20577;-63
2021/07/25 06:45:59;;;;;;;53.47;34.47;;;;;;;;;;5048913;28;20085;-63
2021/07/25 06:48:28;;;;;;;56.85;34.80;;;;;;;;;;5049729;28;20108;-63
2021/07/25 06:50:55;;;;;;;55.80;33.97;;;;;;;;;;5046328;28;20036;-64
2021/07/25 06:53:22;;;;;;;49.47;32.45;;;;;;;;;;5043841;28;20520;-63
2021/07/25 06:55:48;;;;;;;48.20;29.65;;;;;;;;;;5050860;28;20067;-63
2021/07/25 06:58:15;;;;;;;47.13;28.73;;;;;;;;;;5062798;28;20029;-63
2021/07/25 07:00:41;;;;;;;46.85;29.10;;;;;;;;;;5054298;28;20054;-64
2021/07/25 07:03:07;;;;;;;41.28;29.05;;;;;;;;;;5059047;28;20033;-63
2021/07/25 07:05:34;;;;;;;39.67;24.65;;;;;;;;;;5046982;28;20036;-63
2021/07/25 07:08:04;;;;;;;49.83;26.98;;;;;;;;;;5051675;28;20025;-64
2021/07/25 07:10:31;;;;;;;39.80;25.58;;;;;;;;;;5049255;28;20017;-63
2021/07/25 07:12:58;;;;;;;39.15;23.95;;;;;;;;;;5052927;28;20024;-63
2021/07/25 07:15:25;;;;;;;39.88;22.88;;;;;;;;;;5046491;28;20120;-63
2021/07/25 07:17:52;;;;;;;34.58;22.50;;;;;;;;;;5045403;28;20022;-63
2021/07/25 07:20:19;;;;;;;31.88;20.75;;;;;;;;;;5046149;28;20033;-63
2021/07/25 07:22:58;;;;;;;29.08;19.58;;;;;;;;;;5050640;28;20554;-63
2021/07/25 07:25:26;;;;;;;28.55;18.75;;;;;;;;;;5049093;28;20037;-63
2021/07/25 07:27:53;;;;;;;31.75;18.70;;;;;;;;;;5049965;28;20451;-64
2021/07/25 07:30:19;;;;;;;28.92;17.95;;;;;;;;;;5050206;28;20017;-63
2021/07/25 07:32:45;;;;;;;28.13;18.10;;;;;;;;;;5041920;28;20033;-63
2021/07/25 07:35:11;;;;;;;30.23;18.27;;;;;;;;;;5044017;28;20480;-63
2021/07/25 07:37:37;;;;;;;27.45;17.75;;;;;;;;;;5050323;28;20524;-66
2021/07/25 07:40:04;;;;;;;27.23;15.93;;;;;;;;;;5050172;28;20044;-63
2021/07/25 07:42:30;;;;;;;23.63;15.50;;;;;;;;;;5049303;28;20039;-63
2021/07/25 07:44:56;;;;;;;40.85;15.82;;;;;;;;;;5047733;28;20044;-63
2021/07/25 07:47:23;;;;;;;18.13;12.32;;;;;;;;;;5050010;28;20120;-63
2021/07/25 07:49:52;;;;;;;23.08;13.43;;;;;;;;;;5049636;28;20104;-63
2021/07/25 07:52:18;;;;;;;20.40;12.27;;;;;;;;;;5049150;28;20056;-64
2021/07/25 07:54:44;;;;;;;20.95;13.65;;;;;;;;;;5044629;28;20044;-65
2021/07/25 07:57:12;;;;;;;17.90;12.88;;;;;;;;;;5048440;28;20029;-65
2021/07/25 07:59:38;;;;;;;19.90;13.45;;;;;;;;;;5052236;28;20064;-66
2021/07/25 08:02:04;;;;;;;21.38;14.18;;;;;;;;;;5053340;28;20025;-65
2021/07/25 08:04:30;;;;;;;21.67;13.98;;;;;;;;;;5051391;28;20033;-65
2021/07/25 08:06:56;;;;;;;21.52;13.52;;;;;;;;;;5053375;28;20021;-65
2021/07/25 08:09:22;;;;;;;23.75;15.10;;;;;;;;;;5050796;28;20017;-64
2021/07/25 08:11:48;;;;;;;21.95;14.38;;;;;;;;;;5050369;28;20070;-63
2021/07/25 08:14:14;;;;;;;21.45;13.77;;;;;;;;;;5051612;28;20033;-64
2021/07/25 08:16:41;;;;;;;19.77;13.43;;;;;;;;;;5048341;28;20139;-64
2021/07/25 08:19:08;;;;;;;21.40;13.98;;;;;;;;;;5048771;28;20029;-64
2021/07/25 08:21:34;;;;;;;22.05;14.75;;;;;;;;;;5049564;28;20024;-64
2021/07/25 08:24:00;;;;;;;20.48;13.15;;;;;;;;;;5050668;28;20025;-64
2021/07/25 08:26:26;;;;;;;23.27;13.93;;;;;;;;;;5047223;28;20024;-64
2021/07/25 08:28:52;;;;;;;23.92;14.43;;;;;;;;;;5049790;28;20024;-65
2021/07/25 08:31:18;;;;;;;23.60;14.40;;;;;;;;;;5052788;28;20025;-64
2021/07/25 08:33:44;;;;;;;22.90;15.75;;;;;;;;;;5051459;28;20044;-65
2021/07/25 08:36:10;;;;;;;20.60;14.80;;;;;;;;;;5051443;28;20033;-65
2021/07/25 08:38:36;;;;;;;23.95;15.40;;;;;;;;;;5054448;28;20029;-64
2021/07/25 08:41:20;;;;;;;21.70;14.55;;;;;;;;;;5051166;28;20025;-66
2021/07/25 08:43:47;;;;;;;22.60;15.38;;;;;;;;;;5052433;28;20028;-65
2021/07/25 08:46:19;;;;;;;26.08;16.80;;;;;;;;;;5051360;28;20021;-65
2021/07/25 08:48:50;;;;;;;24.08;15.55;;;;;;;;;;5047886;28;20032;-65
2021/07/25 08:51:17;;;;;;;22.50;15.90;;;;;;;;;;5051493;28;20128;-65
2021/07/25 08:53:50;;;;;;;23.73;15.45;;;;;;;;;;5049122;28;20032;-65
2021/07/25 08:56:17;;;;;;;25.80;16.80;;;;;;;;;;5049426;28;20500;-65
2021/07/25 08:58:44;;;;;;;26.17;15.38;;;;;;;;;;5050463;28;20512;-64
2021/07/25 09:01:13;;;;;;;27.48;15.73;;;;;;;;;;5051306;28;20028;-65
2021/07/25 09:03:40;;;;;;;22.08;14.50;;;;;;;;;;5050844;28;20447;-64
2021/07/25 09:06:06;;;;;;;23.20;16.65;;;;;;;;;;5047045;28;20061;-65
2021/07/25 09:08:33;;;;;;;23.60;15.52;;;;;;;;;;5050611;28;20155;-65
2021/07/25 09:11:06;;;;;;;28.77;16.50;;;;;;;;;;5048644;28;20434;-66
2021/07/25 09:13:32;;;;;;;23.50;14.98;;;;;;;;;;5047886;28;20040;-65
2021/07/25 09:15:58;;;;;;;23.30;15.63;;;;;;;;;;5043888;28;20496;-64
2021/07/25 09:18:24;;;;;;;23.45;15.18;;;;;;;;;;5049547;28;20032;-64
2021/07/25 09:20:50;;;;;;;19.65;12.68;;;;;;;;;;5047351;28;20021;-64
2021/07/25 09:23:20;;;;;;;21.38;13.93;;;;;;;;;;5049475;28;20029;-64
2021/07/25 09:25:48;;;;;;;20.48;12.77;;;;;;;;;;5046626;28;20029;-64
2021/07/25 09:28:16;;;;;;;20.15;13.55;;;;;;;;;;5047809;28;20018;-65
2021/07/25 09:30:42;;;;;;;18.70;12.13;;;;;;;;;;5046845;28;20237;-65
2021/07/25 09:33:27;;;;;;;18.45;11.95;;;;;;;;;;5045776;28;20033;-65
2021/07/25 09:35:53;;;;;;;21.35;12.98;;;;;;;;;;5040200;28;20106;-65
2021/07/25 09:38:20;;;;;;;15.77;10.75;;;;;;;;;;5045763;28;20531;-65
2021/07/25 09:40:46;;;;;;;18.35;11.13;;;;;;;;;;5050520;28;20032;-65
2021/07/25 09:43:18;;;;;;;20.15;12.60;;;;;;;;;;5051007;28;20032;-65
2021/07/25 09:45:44;;;;;;;;;;;;;;;;;;5045674;28;20025;-65
2021/07/25 09:48:10;;;;;;;16.95;10.85;;;;;;;;;;5049665;28;20311;-65
2021/07/25 09:50:36;;;;;;;16.50;9.55;;;;;;;;;;5050623;28;20029;-66
2021/07/25 09:53:02;;;;;;;17.05;8.75;;;;;;;;;;5048052;28;20021;-66
2021/07/25 09:55:32;;;;;;;12.38;7.88;;;;;;;;;;5049619;28;20025;-66
2021/07/25 09:57:58;;;;;;;14.20;8.05;;;;;;;;;;5049343;28;20029;-65
2021/07/25 10:00:24;;;;;;;12.75;7.40;;;;;;;;;;5052351;28;20028;-65
2021/07/25 10:02:50;;;;;;;15.07;7.75;;;;;;;;;;5049366;28;20032;-66
2021/07/25 10:05:21;;;;;;;16.13;8.15;;;;;;;;;;5044711;28;20033;-66
2021/07/25 10:07:47;;;;;;;;;;;;;;;;;;5049201;28;20025;-65
2021/07/25 10:10:15;;;;;;;11.32;6.43;;;;;;;;;;5050872;28;19955;-65
2021/07/25 10:12:42;;;;;;;13.82;7.13;;;;;;;;;;5046201;28;20025;-65
2021/07/25 10:15:09;;;;;;;10.55;5.72;;;;;;;;;;5043986;28;20082;-66
2021/07/25 10:17:36;;;;;;;19.40;13.38;;;;;;;;;;5044831;28;20036;-66
2021/07/25 10:20:04;;;;;;;27.02;17.58;;;;;;;;;;5042688;28;20029;-65
2021/07/25 10:22:31;;;;;;;30.35;18.50;;;;;;;;;;5043979;28;20031;-66
2021/07/25 10:24:59;;;;;;;27.85;19.15;;;;;;;;;;5043365;28;20094;-66
2021/07/25 10:27:25;;;;;;;28.05;17.83;;;;;;;;;;5048956;28;20024;-66
2021/07/25 10:29:53;;;;;;;26.17;16.10;;;;;;;;;;5047498;28;20021;-65
2021/07/25 10:32:20;;;;;;;24.05;16.77;;;;;;;;;;5044159;28;20112;-65
2021/07/25 10:34:50;;;;;;;27.00;16.75;;;;;;;;;;5039078;28;20053;-65
2021/07/25 10:37:16;;;;;;;26.33;17.73;;;;;;;;;;5038759;28;20523;-66
2021/07/25 10:39:48;;;;;;;25.63;17.75;;;;;;;;;;5041693;28;20032;-65
2021/07/25 10:42:20;;;;;;;22.52;14.27;;;;;;;;;;5043436;28;20028;-65
2021/07/25 10:44:46;;;;;;;23.33;14.00;;;;;;;;;;5038954;28;20075;-66
2021/07/25 10:47:20;;;;;;;23.92;15.35;;;;;;;;;;5040375;28;20017;-65
2021/07/25 10:49:46;;;;;;;23.73;15.43;;;;;;;;;;5043082;28;20025;-65
2021/07/25 10:52:12;;;;;;;27.98;15.75;;;;;;;;;;5036085;28;20036;-65
2021/07/25 10:54:48;;;;;;;22.20;15.48;;;;;;;;;;5040783;28;20036;-65
2021/07/25 10:57:14;;;;;;;23.70;16.17;;;;;;;;;;5037581;28;20511;-65
2021/07/25 10:59:41;;;;;;;26.13;17.55;;;;;;;;;;5041391;28;20033;-65
2021/07/25 11:02:12;;;;;;;23.92;16.05;;;;;;;;;;5041560;28;20097;-65
2021/07/25 11:04:51;;;;;;;27.25;17.50;;;;;;;;;;5041130;28;20033;-65
2021/07/25 11:07:23;;;;;;;24.92;17.23;;;;;;;;;;5048872;28;20017;-65
2021/07/25 11:09:55;;;;;;;26.15;16.10;;;;;;;;;;5050178;28;20021;-65
2021/07/25 11:12:21;;;;;;;25.90;16.48;;;;;;;;;;5045491;28;20024;-65
2021/07/25 11:14:56;;;;;;;28.98;18.27;;;;;;;;;;5045624;28;20048;-65
2021/07/25 11:17:41;;;;;;;27.92;18.80;;;;;;;;;;5046204;28;20033;-65
2021/07/25 11:20:07;;;;;;;28.42;18.75;;;;;;;;;;5047720;28;20416;-65
2021/07/25 11:22:43;;;;;;;27.10;17.67;;;;;;;;;;5044405;28;20112;-65
2021/07/25 11:25:09;;;;;;;31.88;20.02;;;;;;;;;;5041384;28;20605;-65
2021/07/25 11:27:53;;;;;;;37.95;23.55;;;;;;;;;;5053115;28;20041;-65
2021/07/25 11:30:38;;;;;;;33.15;21.83;;;;;;;;;;5042131;28;20420;-64
2021/07/25 11:33:04;;;;;;;32.58;23.80;;;;;;;;;;5042252;28;20014;-65
2021/07/25 11:35:31;;;;;;;35.42;24.10;;;;;;;;;;5039815;28;20084;-64
2021/07/25 11:37:57;;;;;;;41.65;26.38;;;;;;;;;;5040400;28;20029;-65
2021/07/25 11:40:24;;;;;;;38.25;26.55;;;;;;;;;;5048450;28;20087;-65
2021/07/25 11:42:51;;;;;;;37.38;24.73;;;;;;;;;;5050999;28;20108;-65
2021/07/25 11:45:17;;;;;;;34.88;23.83;;;;;;;;;;5031199;28;22035;-63
2021/07/25 11:47:45;;;;;;;34.13;22.40;;;;;;;;;;5040729;28;20396;-65
2021/07/25 11:50:11;;;;;;;29.80;22.88;;;;;;;;;;5045004;28;20021;-64
2021/07/25 11:52:37;;;;;;;38.78;23.58;;;;;;;;;;5043543;28;20035;-64
2021/07/25 11:55:03;;;;;;;39.88;25.95;;;;;;;;;;5040138;28;20021;-64
2021/07/25 11:57:29;;;;;;;43.53;29.58;;;;;;;;;;5043960;28;20028;-64
2021/07/25 11:59:58;;;;;;;45.72;29.48;;;;;;;;;;5045828;28;20029;-64
2021/07/25 12:02:25;;;;;;;47.78;29.80;;;;;;;;;;5046815;28;20029;-65
2021/07/25 12:04:51;;;;;;;51.67;35.30;;;;;;;;;;5040412;28;20029;-63
2021/07/25 12:07:20;;;;;;;52.22;35.20;;;;;;;;;;5044597;28;20027;-63
2021/07/25 12:09:50;;;;;;;50.22;32.08;;;;;;;;;;5039012;28;20660;-63
2021/07/25 12:12:20;;;;;;;52.30;34.75;;;;;;;;;;5049918;28;20416;-63
2021/07/25 12:14:48;;;;;;;50.55;33.53;;;;;;;;;;5045065;28;20029;-63
2021/07/25 12:17:34;;;;;;;54.42;31.92;;;;;;;;;;5040672;28;20025;-63
2021/07/25 12:20:09;;;;;;;51.70;32.92;;;;;;;;;;5042171;28;20031;-63
2021/07/25 12:22:46;;;;;;;51.05;31.73;;;;;;;;;;5043233;28;20021;-63
2021/07/25 12:25:13;;;;;;;54.45;35.25;;;;;;;;;;5042613;28;20113;-62
2021/07/25 12:27:39;;;;;;;55.40;35.97;;;;;;;;;;5045634;28;20029;-62
2021/07/25 12:30:09;;;;;;;53.92;36.75;;;;;;;;;;5042998;28;20024;-62
2021/07/25 12:32:35;;;;;;;54.45;35.42;;;;;;;;;;5047948;28;20060;-62
2021/07/25 12:35:16;;;;;;;62.35;40.90;;;;;;;;;;5047008;28;20041;-62
2021/07/25 12:37:46;;;;;;;59.08;37.45;;;;;;;;;;5047632;28;20082;-62
2021/07/25 12:40:14;;;;;;;59.10;39.67;;;;;;;;;;5037108;28;20033;-62
2021/07/25 12:42:40;;;;;;;64.20;42.53;;;;;;;;;;5046605;28;20037;-62
2021/07/25 12:45:21;;;;;;;73.68;45.72;;;;;;;;;;5047596;28;20040;-62
2021/07/25 12:47:47;;;;;;;70.53;45.97;;;;;;;;;;5060073;28;20167;-62
2021/07/25 12:50:13;;;;;;;75.68;47.97;;;;;;;;;;5052076;28;20051;-62
2021/07/25 12:52:39;;;;;;;71.88;45.47;;;;;;;;;;5053178;28;20028;-62
2021/07/25 12:55:06;;;;;;;70.63;43.65;;;;;;;;;;5048273;28;20566;-62
2021/07/25 12:57:32;;;;;;;64.93;39.17;;;;;;;;;;5051402;28;20032;-62
2021/07/25 12:59:58;;;;;;;62.35;39.20;;;;;;;;;;5049258;28;20052;-62
2021/07/25 13:05:09;;;;;;;54.88;34.65;;;;;;;;;;5048985;28;20139;-62
2021/07/25 13:07:35;;;;;;;52.70;33.40;;;;;;;;;;5049502;28;20017;-62
2021/07/25 13:10:01;;;;;;;52.47;32.28;;;;;;;;;;5046875;28;20052;-62
2021/07/25 13:12:28;;;;;;;44.00;29.05;;;;;;;;;;5048004;28;20017;-62
2021/07/25 13:14:54;;;;;;;40.75;26.38;;;;;;;;;;5046426;28;20036;-63
2021/07/25 13:17:20;;;;;;;37.67;26.15;;;;;;;;;;5049878;28;20024;-62
2021/07/25 13:19:46;;;;;;;42.50;28.20;;;;;;;;;;5051091;28;20029;-63
2021/07/25 13:22:13;;;;;;;41.25;28.00;;;;;;;;;;5052115;28;20020;-63
2021/07/25 13:24:39;;;;;;;45.58;30.10;;;;;;;;;;5048883;28;20036;-62
2021/07/25 13:27:05;;;;;;;38.70;24.30;;;;;;;;;;5050285;28;20021;-63
2021/07/25 13:29:31;;;;;;;55.13;30.73;;;;;;;;;;5050795;28;20104;-63
2021/07/25 13:31:57;;;;;;;46.35;32.47;;;;;;;;;;5052337;28;20029;-63
2021/07/25 13:34:23;;;;;;;45.33;29.13;;;;;;;;;;5049733;28;20041;-62
2021/07/25 13:36:49;;;;;;;50.90;28.65;;;;;;;;;;5047258;28;20039;-63
2021/07/25 13:39:15;;;;;;;49.25;29.13;;;;;;;;;;5050665;28;20092;-63
2021/07/25 13:41:41;;;;;;;54.47;33.13;;;;;;;;;;5053095;28;20481;-63
2021/07/25 13:44:07;;;;;;;53.20;35.67;;;;;;;;;;5053375;28;20078;-64
2021/07/25 13:46:55;;;;;;;49.92;34.45;;;;;;;;;;5051317;28;20564;-64
2021/07/25 13:49:21;;;;;;;48.25;32.85;;;;;;;;;;5048499;28;20515;-64
2021/07/25 13:51:47;;;;;;;44.80;32.10;;;;;;;;;;5049713;28;20021;-63
2021/07/25 13:54:13;;;;;;;46.40;31.63;;;;;;;;;;5050594;28;20107;-64
2021/07/25 13:56:40;;;;;;;48.35;32.60;;;;;;;;;;5045556;28;20060;-63
2021/07/25 13:59:06;;;;;;;43.35;30.38;;;;;;;;;;5052101;28;20036;-63
2021/07/25 14:01:32;;;;;;;47.47;29.80;;;;;;;;;;5049722;28;20019;-63
2021/07/25 14:03:58;;;;;;;49.95;34.85;;;;;;;;;;5042007;28;20124;-63
2021/07/25 14:06:24;;;;;;;49.30;30.25;;;;;;;;;;5048119;28;20116;-63
2021/07/25 14:08:50;;;;;;;42.20;28.95;;;;;;;;;;5048992;28;20056;-62
2021/07/25 14:11:16;;;;;;;44.85;30.63;;;;;;;;;;5048224;28;20029;-63
2021/07/25 14:13:42;;;;;;;46.30;29.90;;;;;;;;;;5051411;28;20021;-64
2021/07/25 14:16:19;;;;;;;42.42;29.95;;;;;;;;;;5047102;28;20496;-62
2021/07/25 14:18:45;;;;;;;40.47;27.10;;;;;;;;;;5049073;28;20060;-63
2021/07/25 14:21:11;;;;;;;44.08;25.20;;;;;;;;;;5054331;28;20057;-62
2021/07/25 14:23:37;;;;;;;39.03;26.20;;;;;;;;;;5049971;28;20023;-62